createdAt,value
2022-11-01T00:01:59.738Z,29.73
2022-11-01T00:04:28.031Z,28.58
2022-11-01T00:06:55.443Z,25.67
2022-11-01T00:09:23.680Z,25.45
2022-11-01T00:11:51.904Z,25.25
2022-11-01T00:14:20.038Z,28.80
2022-11-01T00:16:48.071Z,28.83
2022-11-01T00:19:15.911Z,27.20
2022-11-01T00:21:44.779Z,31.85
2022-11-01T00:24:12.832Z,28.40
2022-11-01T00:26:40.735Z,29.45
2022-11-01T00:29:08.282Z,25.00
2022-11-01T00:31:36.153Z,33.05
2022-11-01T00:34:06.107Z,25.55
2022-11-01T00:36:34.780Z,23.52
2022-11-01T00:39:04.264Z,21.30
2022-11-01T00:41:32.342Z,24.10
2022-11-01T00:44:00.140Z,21.70
2022-11-01T00:46:27.649Z,23.67
2022-11-01T00:48:56.053Z,24.25
2022-11-01T00:51:24.104Z,23.12
2022-11-01T00:53:52.002Z,24.12
2022-11-01T00:56:20.229Z,20.75
2022-11-01T00:58:47.882Z,26.35
2022-11-01T01:01:16.470Z,22.00
2022-11-01T01:03:44.677Z,24.73
2022-11-01T01:06:12.908Z,21.48
2022-11-01T01:08:40.906Z,22.45
2022-11-01T01:11:08.868Z,24.83
2022-11-01T01:13:36.236Z,20.67
2022-11-01T01:16:09.711Z,24.55
2022-11-01T01:18:38.836Z,23.25
2022-11-01T01:21:07.480Z,23.90
2022-11-01T01:23:36.463Z,26.42
2022-11-01T01:26:07.267Z,24.87
2022-11-01T01:28:40.121Z,27.90
2022-11-01T01:31:13.024Z,26.12
2022-11-01T01:33:40.798Z,30.25
2022-11-01T01:36:08.739Z,25.08
2022-11-01T01:38:36.396Z,24.05
2022-11-01T01:41:22.415Z,24.67
2022-11-01T01:43:50.284Z,24.27
2022-11-01T01:46:18.801Z,28.05
2022-11-01T01:48:48.845Z,31.92
2022-11-01T01:51:19.667Z,28.27
2022-11-01T01:53:51.158Z,26.20
2022-11-01T01:56:32.035Z,23.33
2022-11-01T01:59:03.913Z,28.20
2022-11-01T02:01:33.020Z,26.40
2022-11-01T02:04:02.865Z,26.17
2022-11-01T02:06:32.433Z,23.92
2022-11-01T02:09:01.807Z,28.90
2022-11-01T02:11:29.867Z,29.08
2022-11-01T02:13:58.143Z,25.60
2022-11-01T02:16:42.117Z,26.83
2022-11-01T02:19:19.011Z,27.98
2022-11-01T02:22:06.293Z,27.77
2022-11-01T02:25:02.591Z,31.15
2022-11-01T02:27:35.031Z,30.02
2022-11-01T02:30:08.671Z,27.67
2022-11-01T02:33:02.482Z,35.75
2022-11-01T02:35:38.587Z,29.12
2022-11-01T02:38:18.340Z,32.78
2022-11-01T02:41:08.677Z,26.45
2022-11-01T02:43:46.869Z,31.45
2022-11-01T02:46:35.339Z,31.52
2022-11-01T02:49:04.900Z,30.50
2022-11-01T02:51:34.202Z,30.40
2022-11-01T02:54:19.972Z,35.47
2022-11-01T02:56:48.380Z,24.70
2022-11-01T02:59:23.509Z,32.72
2022-11-01T03:01:58.855Z,31.65
2022-11-01T03:04:26.456Z,31.52
2022-11-01T03:06:59.810Z,31.33
2022-11-01T03:09:27.585Z,32.47
2022-11-01T03:12:03.731Z,27.87
2022-11-01T03:15:05.945Z,32.58
2022-11-01T03:17:41.392Z,30.73
2022-11-01T03:20:23.457Z,37.55
2022-11-01T03:22:57.381Z,31.15
2022-11-01T03:25:44.317Z,33.97
2022-11-01T03:28:18.261Z,31.00
2022-11-01T03:30:57.269Z,31.50
2022-11-01T03:33:25.777Z,30.10
2022-11-01T03:35:57.708Z,32.88
2022-11-01T03:38:27.507Z,31.98
2022-11-01T03:40:58.088Z,35.42
2022-11-01T03:43:27.351Z,39.72
2022-11-01T03:45:55.119Z,32.38
2022-11-01T03:48:22.863Z,36.70
2022-11-01T03:50:52.117Z,39.90
2022-11-01T03:53:20.159Z,30.62
2022-11-01T03:55:47.548Z,35.38
2022-11-01T03:58:16.505Z,36.50
2022-11-01T04:00:45.815Z,35.95
2022-11-01T04:03:14.079Z,37.72
2022-11-01T04:05:42.883Z,35.95
2022-11-01T04:08:11.713Z,36.00
2022-11-01T04:10:39.489Z,34.97
2022-11-01T04:13:08.508Z,34.88
2022-11-01T04:15:56.093Z,34.60
2022-11-01T04:18:43.433Z,40.40
2022-11-01T04:21:15.400Z,39.17
2022-11-01T04:23:44.269Z,37.72
2022-11-01T04:26:17.107Z,31.70
2022-11-01T04:28:57.483Z,36.58
2022-11-01T04:31:36.514Z,34.55
2022-11-01T04:34:05.531Z,35.33
2022-11-01T04:36:33.525Z,38.72
2022-11-01T04:39:01.931Z,32.20
2022-11-01T04:41:30.358Z,33.90
2022-11-01T04:43:59.109Z,34.15
2022-11-01T04:46:32.162Z,34.20
2022-11-01T04:49:00.031Z,26.30
2022-11-01T04:51:27.775Z,28.23
2022-11-01T04:53:55.511Z,24.92
2022-11-01T04:56:23.425Z,29.02
2022-11-01T04:58:51.336Z,28.67
2022-11-01T05:01:19.884Z,29.48
2022-11-01T05:03:48.490Z,27.55
2022-11-01T05:06:16.802Z,25.65
2022-11-01T05:08:44.756Z,27.95
2022-11-01T05:11:12.680Z,29.37
2022-11-01T05:13:40.291Z,31.65
2022-11-01T05:16:23.701Z,27.65
2022-11-01T05:18:52.570Z,30.00
2022-11-01T05:21:21.299Z,32.05
2022-11-01T05:23:49.159Z,30.00
2022-11-01T05:26:17.522Z,28.02
2022-11-01T05:28:46.156Z,28.58
2022-11-01T05:31:13.916Z,32.63
2022-11-01T05:33:41.974Z,27.37
2022-11-01T05:36:09.981Z,27.30
2022-11-01T05:38:37.873Z,26.70
2022-11-01T05:41:05.893Z,27.62
2022-11-01T05:43:33.317Z,31.67
2022-11-01T05:46:07.564Z,27.02
2022-11-01T05:48:36.007Z,25.85
2022-11-01T05:51:03.361Z,22.02
2022-11-01T05:53:31.433Z,24.15
2022-11-01T05:56:00.196Z,27.33
2022-11-01T05:58:30.690Z,30.70
2022-11-01T06:01:04.339Z,27.83
2022-11-01T06:03:35.780Z,26.50
2022-11-01T06:06:03.711Z,35.10
2022-11-01T06:08:32.788Z,29.98
2022-11-01T06:11:04.963Z,33.20
2022-11-01T06:13:33.417Z,35.17
2022-11-01T06:16:03.068Z,30.00
2022-11-01T06:18:30.534Z,33.40
2022-11-01T06:20:59.505Z,35.05
2022-11-01T06:23:27.419Z,37.58
2022-11-01T06:26:05.894Z,39.83
2022-11-01T06:28:35.058Z,38.45
2022-11-01T06:33:32.409Z,35.13
2022-11-01T06:36:02.443Z,36.17
2022-11-01T06:38:30.108Z,38.50
2022-11-01T06:40:57.658Z,40.00
2022-11-01T06:43:26.052Z,34.53
2022-11-01T06:45:53.855Z,34.53
2022-11-01T06:48:22.297Z,29.73
2022-11-01T06:50:53.743Z,33.15
2022-11-01T06:53:22.991Z,33.03
2022-11-01T06:55:52.432Z,29.70
2022-11-01T06:58:20.863Z,29.48
2022-11-01T07:00:48.995Z,28.02
2022-11-01T07:03:17.048Z,28.67
2022-11-01T07:05:45.263Z,29.98
2022-11-01T07:08:14.139Z,31.50
2022-11-01T07:10:44.175Z,28.92
2022-11-01T07:13:13.888Z,34.15
2022-11-01T07:15:41.885Z,32.33
2022-11-01T07:18:10.175Z,32.78
2022-11-01T07:20:42.238Z,31.92
2022-11-01T07:23:16.116Z,30.80
2022-11-01T07:25:44.144Z,36.03
2022-11-01T07:28:13.063Z,34.10
2022-11-01T07:30:41.041Z,27.98
2022-11-01T07:33:09.937Z,30.45
2022-11-01T07:35:38.532Z,30.08
2022-11-01T07:38:09.843Z,27.87
2022-11-01T07:40:41.763Z,30.58
2022-11-01T07:43:09.524Z,26.67
2022-11-01T07:45:37.341Z,29.60
2022-11-01T07:48:10.591Z,27.17
2022-11-01T07:50:39.754Z,24.48
2022-11-01T07:53:16.079Z,25.45
2022-11-01T07:55:43.778Z,26.33
2022-11-01T07:58:12.967Z,28.90
2022-11-01T08:00:43.952Z,29.20
2022-11-01T08:03:15.845Z,29.20
2022-11-01T08:05:44.834Z,31.00
2022-11-01T08:08:13.932Z,29.73
2022-11-01T08:10:42.862Z,32.88
2022-11-01T08:13:19.427Z,31.35
2022-11-01T08:15:49.291Z,28.20
2022-11-01T08:18:18.844Z,29.90
2022-11-01T08:20:47.033Z,34.28
2022-11-01T08:23:14.918Z,29.50
2022-11-01T08:25:42.575Z,29.35
2022-11-01T08:28:19.208Z,29.52
2022-11-01T08:30:49.211Z,33.17
2022-11-01T08:33:17.572Z,26.25
2022-11-01T08:35:50.174Z,27.60
2022-11-01T08:38:19.215Z,27.90
2022-11-01T08:40:48.146Z,29.65
2022-11-01T08:43:15.903Z,28.15
2022-11-01T08:45:45.134Z,28.73
2022-11-01T08:48:13.116Z,28.38
2022-11-01T08:50:41.964Z,26.55
2022-11-01T08:53:13.000Z,28.50
2022-11-01T08:55:41.842Z,25.55
2022-11-01T08:58:11.122Z,25.75
2022-11-01T09:00:39.737Z,28.52
2022-11-01T09:03:07.912Z,28.75
2022-11-01T09:05:36.824Z,29.95
2022-11-01T09:08:04.993Z,31.15
2022-11-01T09:10:33.038Z,44.00
2022-11-01T09:13:02.869Z,27.05
2022-11-01T09:15:31.521Z,29.17
2022-11-01T09:18:06.199Z,29.90
2022-11-01T09:20:34.979Z,27.90
2022-11-01T09:23:02.684Z,30.62
2022-11-01T09:25:30.356Z,29.08
2022-11-01T09:27:58.239Z,29.35
2022-11-01T09:30:26.636Z,29.95
2022-11-01T09:32:55.099Z,27.40
2022-11-01T09:35:23.788Z,29.52
2022-11-01T09:37:58.302Z,32.60
2022-11-01T09:40:28.192Z,30.48
2022-11-01T09:43:01.406Z,28.33
2022-11-01T09:45:32.742Z,27.87
2022-11-01T09:48:02.895Z,32.50
2022-11-01T09:50:34.789Z,30.88
2022-11-01T09:53:04.303Z,31.23
2022-11-01T09:55:55.562Z,26.37
2022-11-01T09:58:34.322Z,37.20
2022-11-01T10:01:39.548Z,29.55
2022-11-01T10:04:28.851Z,43.85
2022-11-01T10:07:03.184Z,28.55
2022-11-01T10:10:03.943Z,27.13
2022-11-01T10:12:38.280Z,25.80
2022-11-01T10:15:42.144Z,24.25
2022-11-01T10:18:29.475Z,24.73
2022-11-01T10:20:59.905Z,28.08
2022-11-01T10:23:45.154Z,25.50
2022-11-01T10:26:16.783Z,27.10
2022-11-01T10:29:01.394Z,28.52
2022-11-01T10:34:02.667Z,28.95
2022-11-01T10:42:13.550Z,29.17
2022-11-01T10:44:44.702Z,39.88
2022-11-01T10:47:16.626Z,26.60
2022-11-01T10:50:05.923Z,27.00
2022-11-01T10:52:59.004Z,26.60
2022-11-01T10:55:51.078Z,26.98
2022-11-01T10:58:34.503Z,29.37
2022-11-01T11:01:04.820Z,28.85
2022-11-01T11:03:34.491Z,31.23
2022-11-01T11:06:06.077Z,30.95
2022-11-01T11:08:37.734Z,30.05
2022-11-01T11:11:10.463Z,31.92
2022-11-01T11:13:44.348Z,35.58
2022-11-01T11:16:37.913Z,31.97
2022-11-01T11:19:08.768Z,31.60
2022-11-01T11:21:37.197Z,28.80
2022-11-01T11:24:05.227Z,33.90
2022-11-01T11:26:39.322Z,33.40
2022-11-01T11:29:08.431Z,31.17
2022-11-01T11:31:37.472Z,29.75
2022-11-01T11:34:07.728Z,31.92
2022-11-01T11:36:40.923Z,37.72
2022-11-01T11:39:36.810Z,36.00
2022-11-01T11:42:19.595Z,40.70
2022-11-01T11:44:52.119Z,35.35
2022-11-01T11:47:28.299Z,33.90
2022-11-01T11:49:58.413Z,40.90
2022-11-01T11:52:37.977Z,32.90
2022-11-01T11:55:26.901Z,33.70
2022-11-01T11:57:56.283Z,29.50
2022-11-01T12:00:28.383Z,39.97
2022-11-01T12:02:57.237Z,30.20
2022-11-01T12:05:26.695Z,34.17
2022-11-01T12:07:55.553Z,29.00
2022-11-01T12:10:39.567Z,31.87
2022-11-01T12:13:41.347Z,30.05
2022-11-01T12:16:17.109Z,30.37
2022-11-01T12:18:54.177Z,30.08
2022-11-01T12:21:38.718Z,43.58
2022-11-01T12:24:16.103Z,30.48
2022-11-01T12:26:45.015Z,34.97
2022-11-01T12:29:22.463Z,30.75
2022-11-01T12:31:51.894Z,31.77
2022-11-01T12:34:23.836Z,68.32
2022-11-01T12:37:02.826Z,38.28
2022-11-01T12:39:50.536Z,29.60
2022-11-01T12:42:24.333Z,33.10
2022-11-01T12:44:57.758Z,33.25
2022-11-01T12:47:54.643Z,33.95
2022-11-01T12:50:24.543Z,33.83
2022-11-01T12:53:06.325Z,32.28
2022-11-01T12:55:40.143Z,31.70
2022-11-01T12:58:15.992Z,33.88
2022-11-01T13:01:21.828Z,30.25
2022-11-01T13:04:16.029Z,33.75
2022-11-01T13:07:35.899Z,33.95
2022-11-01T13:10:12.946Z,75.45
2022-11-01T13:12:53.034Z,38.10
2022-11-01T13:15:56.060Z,32.17
2022-11-01T13:18:33.674Z,29.83
2022-11-01T13:21:11.270Z,33.03
2022-11-01T13:23:51.139Z,35.63
2022-11-01T13:26:25.515Z,35.60
2022-11-01T13:29:04.608Z,39.37
2022-11-01T13:31:44.765Z,41.13
2022-11-01T13:34:43.148Z,48.35
2022-11-01T13:37:24.230Z,43.33
2022-11-01T13:40:29.572Z,35.35
2022-11-01T13:45:38.259Z,34.97
2022-11-01T13:48:14.968Z,36.00
2022-11-01T13:51:16.849Z,35.72
2022-11-01T13:53:53.071Z,69.40
2022-11-01T13:56:31.359Z,53.75
2022-11-01T13:58:59.213Z,49.83
2022-11-01T14:01:37.803Z,32.50
2022-11-01T14:04:19.570Z,31.70
2022-11-01T14:07:16.275Z,34.83
2022-11-01T14:09:55.308Z,33.20
2022-11-01T14:12:48.088Z,34.22
2022-11-01T14:15:28.458Z,28.35
2022-11-01T14:17:56.703Z,32.58
2022-11-01T14:20:25.326Z,33.65
2022-11-01T14:22:53.841Z,33.55
2022-11-01T14:25:30.627Z,34.45
2022-11-01T14:28:18.505Z,32.88
2022-11-01T14:30:49.834Z,32.10
2022-11-01T14:33:22.936Z,29.67
2022-11-01T14:35:57.079Z,28.90
2022-11-01T14:38:32.764Z,40.20
2022-11-01T14:41:00.876Z,37.35
2022-11-01T14:43:51.022Z,33.50
2022-11-01T14:46:23.411Z,31.75
2022-11-01T14:49:25.113Z,35.95
2022-11-01T14:51:56.582Z,32.33
2022-11-01T14:54:30.578Z,39.42
2022-11-01T14:56:58.959Z,34.95
2022-11-01T14:59:28.725Z,34.58
2022-11-01T15:02:03.043Z,34.63
2022-11-01T15:04:40.574Z,37.53
2022-11-01T15:07:31.258Z,39.28
2022-11-01T15:10:13.317Z,51.92
2022-11-01T15:12:53.242Z,36.80
2022-11-01T15:15:24.833Z,41.15
2022-11-01T15:18:16.773Z,41.42
2022-11-01T15:20:55.212Z,39.85
2022-11-01T15:23:35.198Z,37.05
2022-11-01T15:26:09.742Z,46.63
2022-11-01T15:28:41.930Z,41.70
2022-11-01T15:31:10.753Z,39.70
2022-11-01T15:33:39.504Z,40.08
2022-11-01T15:36:19.030Z,38.80
2022-11-01T15:38:55.894Z,40.75
2022-11-01T15:41:32.719Z,40.83
2022-11-01T15:44:08.628Z,43.20
2022-11-01T15:46:40.859Z,38.33
2022-11-01T15:49:36.570Z,39.75
2022-11-01T15:52:07.690Z,39.60
2022-11-01T15:55:02.652Z,40.28
2022-11-01T15:57:33.877Z,40.53
2022-11-01T16:00:19.097Z,39.15
2022-11-01T16:03:13.093Z,39.72
2022-11-01T16:05:45.751Z,37.67
2022-11-01T16:08:26.590Z,40.22
2022-11-01T16:10:55.136Z,38.80
2022-11-01T16:13:23.237Z,40.17
2022-11-01T16:16:17.524Z,40.63
2022-11-01T16:18:46.145Z,36.97
2022-11-01T16:21:20.832Z,36.38
2022-11-01T16:27:04.042Z,39.55
2022-11-01T16:29:40.679Z,35.72
2022-11-01T16:32:18.106Z,40.83
2022-11-01T16:34:47.697Z,38.25
2022-11-01T16:37:21.456Z,41.65
2022-11-01T16:39:51.717Z,40.58
2022-11-01T16:42:21.857Z,40.33
2022-11-01T16:44:56.710Z,36.88
2022-11-01T16:47:25.227Z,43.25
2022-11-01T16:49:55.188Z,40.58
2022-11-01T16:52:23.410Z,42.45
2022-11-01T16:54:51.923Z,40.12
2022-11-01T16:57:27.736Z,44.30
2022-11-01T16:59:56.568Z,45.75
2022-11-01T17:02:28.493Z,49.65
2022-11-01T17:05:09.118Z,51.58
2022-11-01T17:07:37.573Z,51.72
2022-11-01T17:10:26.098Z,42.67
2022-11-01T17:12:57.824Z,47.28
2022-11-01T17:15:27.402Z,54.47
2022-11-01T17:17:56.527Z,52.45
2022-11-01T17:20:27.777Z,54.55
2022-11-01T17:22:57.421Z,51.17
2022-11-01T17:25:30.578Z,47.53
2022-11-01T17:27:58.566Z,46.30
2022-11-01T17:30:27.009Z,51.88
2022-11-01T17:32:54.969Z,46.72
2022-11-01T17:35:26.658Z,49.47
2022-11-01T17:37:56.479Z,47.20
2022-11-01T17:40:27.536Z,41.95
2022-11-01T17:42:56.189Z,50.22
2022-11-01T17:45:26.200Z,48.47
2022-11-01T17:47:54.977Z,46.72
2022-11-01T17:50:23.241Z,47.10
2022-11-01T17:52:52.136Z,48.80
2022-11-01T17:55:21.480Z,46.65
2022-11-01T17:57:50.401Z,44.95
2022-11-01T18:00:20.164Z,43.40
2022-11-01T18:02:50.941Z,49.55
2022-11-01T18:05:19.056Z,51.20
2022-11-01T18:07:49.803Z,54.17
2022-11-01T18:10:37.484Z,58.63
2022-11-01T18:13:29.182Z,57.80
2022-11-01T18:16:06.454Z,59.35
2022-11-01T18:19:02.861Z,54.72
2022-11-01T18:21:39.800Z,56.67
2022-11-01T18:24:19.772Z,59.38
2022-11-01T18:26:51.811Z,63.47
2022-11-01T18:29:22.451Z,59.72
2022-11-01T18:32:02.716Z,62.85
2022-11-01T18:34:35.069Z,52.65
2022-11-01T18:37:50.212Z,58.78
2022-11-01T18:40:26.415Z,53.80
2022-11-01T18:42:55.776Z,58.67
2022-11-01T18:45:35.930Z,60.35
2022-11-01T18:48:20.456Z,53.72
2022-11-01T18:50:52.929Z,49.28
2022-11-01T18:53:21.067Z,65.18
2022-11-01T18:55:50.181Z,54.67
2022-11-01T18:58:29.648Z,47.17
2022-11-01T19:01:18.349Z,48.92
2022-11-01T19:04:02.532Z,46.88
2022-11-01T19:06:33.333Z,44.58
2022-11-01T19:09:17.389Z,48.70
2022-11-01T19:11:45.601Z,48.22
2022-11-01T19:14:24.787Z,43.03
2022-11-01T19:16:54.772Z,46.35
2022-11-01T19:19:23.953Z,47.58
2022-11-01T19:21:57.580Z,44.00
2022-11-01T19:24:36.791Z,44.78
2022-11-01T19:27:16.399Z,47.33
2022-11-01T19:29:45.461Z,42.92
2022-11-01T19:32:16.847Z,44.75
2022-11-01T19:34:46.404Z,45.58
2022-11-01T19:37:18.048Z,43.65
2022-11-01T19:39:48.197Z,40.88
2022-11-01T19:42:35.440Z,40.35
2022-11-01T19:45:10.523Z,33.20
2022-11-01T19:47:41.617Z,33.95
2022-11-01T19:50:20.978Z,35.83
2022-11-01T19:52:56.304Z,29.48
2022-11-01T19:55:44.106Z,28.92
2022-11-01T19:58:35.856Z,31.23
2022-11-01T20:01:24.433Z,34.88
2022-11-01T20:03:58.831Z,34.40
2022-11-01T20:06:26.991Z,26.80
2022-11-01T20:09:15.991Z,35.40
2022-11-01T20:11:44.314Z,32.63
2022-11-01T20:14:14.264Z,31.85
2022-11-01T20:16:43.928Z,32.92
2022-11-01T20:19:16.416Z,32.72
2022-11-01T20:21:46.143Z,33.75
2022-11-01T20:24:15.817Z,35.63
2022-11-01T20:26:44.266Z,32.55
2022-11-01T20:29:15.332Z,31.17
2022-11-01T20:31:44.227Z,28.08
2022-11-01T20:34:11.848Z,30.83
2022-11-01T20:36:44.580Z,34.35
2022-11-01T20:39:15.650Z,29.70
2022-11-01T20:41:45.510Z,27.62
2022-11-01T20:44:15.284Z,29.55
2022-11-01T20:46:44.191Z,26.05
2022-11-01T20:49:13.084Z,27.45
2022-11-01T20:51:41.715Z,29.85
2022-11-01T20:54:11.801Z,26.50
2022-11-01T20:56:44.170Z,28.35
2022-11-01T20:59:14.709Z,24.90
2022-11-01T21:01:46.999Z,28.02
2022-11-01T21:04:15.302Z,27.95
2022-11-01T21:06:43.604Z,29.20
2022-11-01T21:09:24.790Z,25.05
2022-11-01T21:11:52.788Z,24.37
2022-11-01T21:14:25.760Z,29.40
2022-11-01T21:16:56.564Z,29.33
2022-11-01T21:19:25.491Z,27.60
2022-11-01T21:21:58.322Z,25.17
2022-11-01T21:24:32.287Z,23.20
2022-11-01T21:27:12.345Z,22.02
2022-11-01T21:29:47.463Z,25.12
2022-11-01T21:32:34.851Z,24.20
2022-11-01T21:35:38.252Z,26.58
2022-11-01T21:38:26.019Z,26.98
2022-11-01T21:40:54.042Z,23.38
2022-11-01T21:43:32.373Z,23.92
2022-11-01T21:46:02.021Z,27.55
2022-11-01T21:48:31.377Z,31.17
2022-11-01T21:50:59.538Z,24.55
2022-11-01T21:53:27.310Z,30.05
2022-11-01T21:55:55.133Z,27.37
2022-11-01T21:58:23.335Z,29.98
2022-11-01T22:00:52.314Z,31.70
2022-11-01T22:03:20.234Z,29.05
2022-11-01T22:05:48.063Z,26.80
2022-11-01T22:08:15.877Z,25.83
2022-11-01T22:10:43.635Z,25.95
2022-11-01T22:13:12.297Z,24.48
2022-11-01T22:15:39.985Z,27.17
2022-11-01T22:18:08.242Z,25.52
2022-11-01T22:20:36.016Z,24.92
2022-11-01T22:23:03.930Z,24.70
2022-11-01T22:25:32.677Z,27.23
2022-11-01T22:28:00.460Z,24.35
2022-11-01T22:30:28.455Z,28.00
2022-11-01T22:32:57.170Z,27.67
2022-11-01T22:35:25.570Z,28.05
2022-11-01T22:37:53.986Z,28.75
2022-11-01T22:40:22.330Z,24.77
2022-11-01T22:42:55.326Z,25.42
2022-11-01T22:45:24.581Z,25.83
2022-11-01T22:47:52.651Z,24.58
2022-11-01T22:50:27.229Z,24.90
2022-11-01T22:52:55.967Z,21.15
2022-11-01T22:55:27.534Z,23.40
2022-11-01T22:57:59.363Z,25.45
2022-11-01T23:00:30.197Z,21.30
2022-11-01T23:03:11.096Z,25.17
2022-11-01T23:05:38.867Z,26.12
2022-11-01T23:08:36.855Z,26.75
2022-11-01T23:11:05.436Z,25.65
2022-11-01T23:13:56.050Z,24.90
2022-11-01T23:16:34.646Z,24.23
2022-11-01T23:19:08.166Z,24.33
2022-11-01T23:21:36.222Z,23.12
2022-11-01T23:24:06.197Z,22.65
2022-11-01T23:26:34.327Z,20.48
2022-11-01T23:29:02.869Z,23.70
2022-11-01T23:31:31.400Z,22.67
2022-11-01T23:33:59.498Z,24.23
2022-11-01T23:36:35.166Z,18.60
2022-11-01T23:39:09.112Z,20.77
2022-11-01T23:41:48.745Z,21.20
2022-11-01T23:44:25.836Z,19.35
2022-11-01T23:47:15.897Z,21.10
2022-11-01T23:49:45.832Z,21.40
2022-11-01T23:52:30.145Z,19.20
2022-11-01T23:54:58.680Z,25.13
2022-11-01T23:57:26.018Z,18.80
2022-11-01T23:59:53.748Z,23.05
